createdAt,value
2022-08-09T17:57:01.604Z,38.83
2022-08-09T17:59:37.997Z,38.34
2022-08-09T18:02:11.190Z,38.04
2022-08-09T18:04:44.569Z,39.23
2022-08-09T18:07:23.045Z,39.13
2022-08-09T18:10:04.520Z,39.76
2022-08-09T18:12:40.819Z,40.74
2022-08-09T18:15:20.318Z,41.18
2022-08-09T18:18:02.929Z,41.53
2022-08-09T18:21:00.836Z,41.17
2022-08-09T18:24:11.191Z,40.83
2022-08-09T18:26:06.174Z,39.46
2022-08-09T18:30:40.347Z,39.30
2022-08-09T18:31:32.230Z,38.74
2022-08-09T18:34:09.864Z,40.29
2022-08-09T18:36:37.289Z,41.45
2022-08-09T18:39:06.611Z,42.39
2022-08-09T18:41:35.598Z,42.56
2022-08-09T18:44:12.385Z,44.16
2022-08-09T18:46:47.640Z,44.11
2022-08-09T18:49:19.285Z,43.47
2022-08-09T18:51:54.649Z,42.80
2022-08-09T18:54:29.045Z,42.74
2022-08-09T18:57:06.172Z,43.69
2022-08-09T18:59:51.208Z,44.58
2022-08-09T19:02:30.410Z,45.26
2022-08-09T19:05:03.848Z,47.10
2022-08-09T19:07:43.376Z,46.37
2022-08-09T19:10:37.899Z,45.70
2022-08-09T19:13:20.207Z,45.34
2022-08-09T19:15:50.185Z,45.85
2022-08-09T19:18:36.549Z,45.27
2022-08-09T19:21:09.579Z,45.53
2022-08-09T19:24:37.882Z,46.94
2022-08-09T19:26:32.222Z,47.12
2022-08-09T19:29:15.044Z,47.49
2022-08-09T19:31:44.270Z,48.32
2022-08-09T19:34:22.160Z,48.66
2022-08-09T19:36:55.722Z,47.26
2022-08-09T19:39:43.221Z,46.58
2022-08-09T19:42:15.253Z,45.68
2022-08-09T19:44:50.911Z,45.36
2022-08-09T19:47:23.746Z,45.15
2022-08-09T19:50:09.775Z,44.88
2022-08-09T19:52:49.454Z,44.46
2022-08-09T19:55:25.772Z,44.28
2022-08-09T19:57:58.330Z,44.00
2022-08-09T20:00:25.626Z,43.92
2022-08-09T20:04:17.307Z,43.83
2022-08-09T20:05:46.435Z,44.60
2022-08-09T20:08:33.358Z,44.88
2022-08-09T20:11:04.413Z,44.65
2022-08-09T20:13:37.209Z,44.39
2022-08-09T20:16:32.900Z,44.35
2022-08-09T20:19:41.948Z,44.59
2022-08-09T20:21:55.033Z,44.68
2022-08-09T20:24:31.893Z,45.59
2022-08-09T20:27:08.012Z,45.46
2022-08-09T20:29:38.614Z,45.68
2022-08-09T20:32:33.021Z,46.64
2022-08-09T20:34:58.800Z,47.38
2022-08-09T20:38:18.979Z,47.55
2022-08-09T20:40:18.388Z,47.39
2022-08-09T20:43:11.871Z,48.07
2022-08-09T20:45:57.496Z,48.10
2022-08-09T20:48:30.619Z,48.31
2022-08-09T20:50:59.953Z,47.88
2022-08-09T20:53:37.010Z,48.12
2022-08-09T20:56:21.097Z,47.63
2022-08-09T20:58:57.917Z,47.90
2022-08-09T21:01:34.539Z,49.29
2022-08-09T21:05:56.951Z,51.12
2022-08-09T21:07:12.503Z,53.63
2022-08-09T21:09:55.627Z,55.65
2022-08-09T21:15:23.832Z,53.51
2022-08-09T21:18:23.760Z,51.89
2022-08-09T21:20:54.105Z,50.44
2022-08-09T21:23:26.478Z,49.95
2022-08-09T21:26:09.986Z,49.56
2022-08-09T21:28:37.258Z,49.25
2022-08-09T21:31:17.289Z,48.92
2022-08-09T21:33:52.861Z,48.44
2022-08-09T21:36:23.199Z,48.09
2022-08-09T21:38:56.894Z,48.17
2022-08-09T21:42:05.033Z,48.18
2022-08-09T21:44:15.410Z,47.67
2022-08-09T21:47:01.751Z,47.40
2022-08-09T21:49:39.531Z,47.32
2022-08-09T21:52:14.942Z,47.74
2022-08-09T21:55:02.769Z,47.54
2022-08-09T21:57:38.465Z,47.64
2022-08-09T22:00:31.757Z,47.68
2022-08-09T22:03:07.093Z,47.27
2022-08-09T22:05:37.468Z,47.50
2022-08-09T22:08:15.940Z,47.47
2022-08-09T22:11:49.388Z,47.40
2022-08-09T22:13:37.160Z,46.92
2022-08-09T22:16:08.909Z,48.63
2022-08-09T22:18:38.495Z,50.14
2022-08-09T22:21:22.000Z,51.59
2022-08-09T22:23:59.064Z,52.05
2022-08-09T22:26:35.528Z,52.55
2022-08-09T22:29:09.542Z,52.99
2022-08-09T22:31:50.500Z,51.94
2022-08-09T22:34:28.255Z,51.17
2022-08-09T22:36:57.269Z,50.74
2022-08-09T22:39:57.859Z,50.08
2022-08-09T22:42:21.943Z,49.27
2022-08-09T22:48:06.196Z,48.78
2022-08-09T22:48:14.551Z,48.76
2022-08-09T22:50:29.758Z,48.27
2022-08-09T22:52:58.615Z,47.86
2022-08-09T22:55:39.247Z,47.89
2022-08-09T22:58:20.492Z,47.87
2022-08-09T23:01:05.493Z,47.57
2022-08-09T23:04:04.732Z,47.94
2022-08-09T23:06:34.697Z,48.13
2022-08-09T23:09:07.065Z,47.88
2022-08-09T23:11:34.382Z,48.36
2022-08-09T23:14:03.130Z,48.35
2022-08-09T23:16:31.444Z,48.59
2022-08-09T23:18:58.591Z,48.78
2022-08-09T23:21:29.938Z,48.76
2022-08-09T23:24:05.897Z,49.30
2022-08-09T23:26:38.345Z,49.29
2022-08-09T23:29:07.400Z,49.57
2022-08-09T23:31:34.977Z,49.45
2022-08-09T23:34:02.480Z,49.37
2022-08-09T23:36:32.223Z,49.17
2022-08-09T23:39:00.002Z,49.37
2022-08-09T23:41:27.597Z,49.43
2022-08-09T23:43:57.962Z,49.42
2022-08-09T23:46:25.311Z,49.46
2022-08-09T23:48:52.455Z,49.08
2022-08-09T23:51:19.695Z,49.08
2022-08-09T23:53:47.334Z,49.25
2022-08-09T23:56:39.554Z,49.52
2022-08-09T23:59:04.948Z,49.76
